首页
METAR-TAF:

METAR-TAF

机场 :

Val-d'Or, 魁北克, 加拿大

纬度: 48-04N, 经度: 077-47W, 海拔: 337米

当前天气观测

该预报发布于33分钟前的17:34 UTC
风速4节,风向
温度 1°C
湿度 86%
气压 1017 hPa
能見度: 19.3公里
散云层高于1300英尺
阴天层高于2500英尺
小雪

METAR: CYVO 201734Z 17004KT 12SM -SN SCT013 OVC025 01/M01 A3003 RMK SC5SC3 SLP191

时间: 13:07 (18:07 UTC)

预报

该预报发布于24分钟前的17:43 UTC
预报有效从20日的 18点(UTC)到 21日的 06点(UTC)
风速3节,风向多变
能見度: 10公里
阴天层高于1500英尺
短暂存在
从 20日的 18点(UTC)到 21日的 04点(UTC)
散云层高于1500英尺
多云层高于2500英尺
从 21日的 0400点(UTC)
风速6节,风向
能見度: 10公里
散云层高于600英尺
阴天层高于1200英尺
短暂存在
从 21日的 04点(UTC)到 21日的 06点(UTC)
能見度: 6.4公里
多云层高于500英尺
阴天层高于1000英尺
轻雾

TAF: CYVO 201743Z 2018/2106 VRB03KT P6SM OVC015 TEMPO 2018/2104 SCT015 BKN025 FM210400 19006KT P6SM SCT006 OVC012 TEMPO 2104/2106 4SM BR BKN005 OVC010 RMK NXT FCST BY 210000Z

超过4000个机场的气象观测和天气预报(METAR&TAF报告)。

可查询的气象台以黄色和红色小点在地图上表示。

将鼠标移到小点上方,可查看气象台名称。

然后点击查看天气观测和预报。

如需切换地图:点击带黑十字的绿色按钮放大地图;点击带横线的绿色按钮缩小地图;或者点击绿色箭头查看邻近地区的地图。


METAR-TAF: